createdAt,value
2022-09-13T00:07:02.952Z,98890.06
2022-09-13T00:17:04.567Z,98893.50
2022-09-13T00:27:06.216Z,98888.81
2022-09-13T00:37:09.194Z,98889.75
2022-09-13T00:47:12.214Z,98882.75
2022-09-13T00:57:14.698Z,98878.22
2022-09-13T01:07:17.741Z,98876.44
2022-09-13T01:17:19.322Z,98869.81
2022-09-13T01:27:27.061Z,98867.22
2022-09-13T01:37:34.927Z,98859.44
2022-09-13T01:47:51.799Z,98851.16
2022-09-13T01:57:58.461Z,98848.88
2022-09-13T02:08:08.654Z,98841.91
2022-09-13T02:18:14.420Z,98839.97
2022-09-13T02:28:18.829Z,98837.03
2022-09-13T02:38:20.427Z,98837.22
2022-09-13T02:48:45.083Z,98837.53
2022-09-13T02:58:52.652Z,98829.59
2022-09-13T03:08:55.590Z,98833.97
2022-09-13T03:19:00.284Z,98827.81
2022-09-13T03:29:23.779Z,98826.03
2022-09-13T03:39:34.477Z,98832.00
2022-09-13T03:49:39.174Z,98828.91
2022-09-13T03:59:46.962Z,98837.22
2022-09-13T04:09:48.938Z,98836.88
2022-09-13T04:19:50.779Z,98851.66
2022-09-13T04:29:52.576Z,98859.13
2022-09-13T04:39:54.162Z,98859.28
2022-09-13T04:49:55.771Z,98853.59
2022-09-13T04:59:57.359Z,98866.28
2022-09-13T05:09:59.159Z,98867.25
2022-09-13T05:20:03.714Z,98866.13
2022-09-13T05:30:08.468Z,98863.97
2022-09-13T05:40:13.505Z,98883.81
2022-09-13T05:50:27.547Z,98877.84
2022-09-13T06:00:36.928Z,98889.50
2022-09-13T06:10:38.586Z,98906.09
2022-09-13T06:20:40.183Z,98910.63
2022-09-13T06:30:41.790Z,98918.78
2022-09-13T06:40:43.339Z,98935.16
2022-09-13T06:50:45.825Z,98936.47
2022-09-13T07:00:47.659Z,98937.63
2022-09-13T07:10:50.007Z,98942.00
2022-09-13T07:20:51.613Z,98951.75
2022-09-13T07:30:53.289Z,98956.81
2022-09-13T07:40:56.754Z,98968.00
2022-09-13T07:51:17.602Z,98970.13
2022-09-13T08:01:20.776Z,98963.59
2022-09-13T08:11:26.351Z,98968.50
2022-09-13T08:21:32.388Z,98960.53
2022-09-13T08:31:34.304Z,98955.47
2022-09-13T08:41:48.151Z,98953.66
2022-09-13T08:52:15.928Z,98960.09
2022-09-13T09:02:29.475Z,98961.59
2022-09-13T09:12:43.581Z,98946.78
2022-09-13T09:22:46.208Z,98952.28
2022-09-13T09:33:03.785Z,98941.81
2022-09-13T09:43:15.482Z,98943.03
2022-09-13T09:53:25.560Z,98944.13
2022-09-13T10:03:31.744Z,98948.81
2022-09-13T10:13:33.498Z,98945.56
2022-09-13T10:23:36.296Z,98945.34
2022-09-13T10:33:49.982Z,98944.97
2022-09-13T10:44:04.521Z,98955.50
2022-09-13T10:54:10.931Z,98968.75
2022-09-13T11:04:30.605Z,98975.00
2022-09-13T11:14:42.456Z,98973.69
2022-09-13T11:24:44.111Z,98972.22
2022-09-13T11:34:45.617Z,98976.63
2022-09-13T11:45:05.304Z,98988.50
2022-09-13T11:55:16.582Z,98990.44
2022-09-13T12:05:24.367Z,98986.88
2022-09-13T12:15:33.078Z,98990.59
2022-09-13T12:25:43.885Z,98991.91
2022-09-13T12:35:45.411Z,98991.72
2022-09-13T12:45:50.899Z,99001.13
2022-09-13T12:56:11.783Z,99005.22
2022-09-13T13:06:27.070Z,99003.91
2022-09-13T13:16:28.782Z,99004.09
2022-09-13T13:26:42.334Z,99001.50
2022-09-13T13:36:49.310Z,99008.66
2022-09-13T13:46:52.172Z,99007.81
2022-09-13T13:56:53.784Z,99012.72
2022-09-13T14:07:06.219Z,99021.16
2022-09-13T14:17:33.277Z,99009.28
2022-09-13T14:27:37.131Z,99018.81
2022-09-13T14:37:42.969Z,99035.38
2022-09-13T14:47:47.533Z,99036.38
2022-09-13T14:57:51.351Z,99039.94
2022-09-13T15:07:53.109Z,99040.63
2022-09-13T15:17:56.227Z,99044.06
2022-09-13T15:27:58.220Z,99047.72
2022-09-13T15:38:15.762Z,99041.19
2022-09-13T15:48:26.698Z,99041.78
2022-09-13T15:58:28.328Z,99044.66
2022-09-13T16:08:29.993Z,99035.66
2022-09-13T16:18:31.749Z,99046.69
2022-09-13T16:28:33.438Z,99052.31
2022-09-13T16:38:35.198Z,99046.25
2022-09-13T16:48:37.295Z,99036.78
2022-09-13T16:58:39.796Z,99065.75
2022-09-13T17:08:44.181Z,99067.63
2022-09-13T17:18:46.502Z,99062.34
2022-09-13T17:28:48.853Z,99054.16
2022-09-13T17:38:54.536Z,99056.34
2022-09-13T17:48:57.528Z,99045.06
2022-09-13T17:59:10.487Z,99054.63
2022-09-13T18:09:14.088Z,99040.84
2022-09-13T18:19:15.960Z,99034.97
2022-09-13T18:29:18.868Z,99042.16
2022-09-13T18:39:22.367Z,99039.22
2022-09-13T18:49:24.023Z,99034.53
2022-09-13T18:59:25.723Z,99028.03
2022-09-13T19:09:27.489Z,99023.66
2022-09-13T19:19:31.021Z,99023.31
2022-09-13T19:29:32.653Z,99015.56
2022-09-13T19:39:34.589Z,99007.59
2022-09-13T19:49:36.227Z,98997.69
2022-09-13T19:59:37.976Z,99002.44
2022-09-13T20:09:41.774Z,98993.72
2022-09-13T20:19:47.848Z,98990.31
2022-09-13T20:29:52.422Z,99004.84
2022-09-13T20:39:54.113Z,99023.00
2022-09-13T20:49:55.717Z,99016.81
2022-09-13T20:59:57.385Z,99024.00
2022-09-13T21:10:01.758Z,99027.38
2022-09-13T21:20:03.632Z,99017.75
2022-09-13T21:30:06.007Z,99014.53
2022-09-13T21:40:07.929Z,99012.66
2022-09-13T21:50:09.557Z,99010.72
2022-09-13T22:00:13.997Z,99010.72
2022-09-13T22:10:15.626Z,99003.66
2022-09-13T22:20:17.313Z,99006.53
2022-09-13T22:30:18.902Z,99006.72
2022-09-13T22:40:23.086Z,99008.31
2022-09-13T22:50:24.738Z,98994.03
2022-09-13T23:00:26.886Z,98996.28
2022-09-13T23:10:28.565Z,98987.22
2022-09-13T23:20:30.249Z,98983.16
2022-09-13T23:30:31.856Z,98979.22
2022-09-13T23:40:33.749Z,98966.31
2022-09-13T23:50:35.341Z,98970.22
